Terminal Aerodrome Forecast
Issued by NWS

Home | Current Version | Previous Version | Text Only | Print | Product List | Glossary On
Versions: 1 2 3 4 5 6 7 8 9 10 11 12 13
000
FTUS42 KTBW 290539
TAFLAL
TAF
KLAL 290539Z 2906/3006 VRB03KT P6SM FEW020 BKN250
     FM291400 11005KT P6SM SCT025 SCT250
     FM291800 08005KT P6SM VCTS BKN040CB
     FM300000 08004KT P6SM SCT040 SCT130 BKN250=

USA.gov is the U.S. government's official web portal to all federal, state and local government web resources and services.